createdAt,value
2018-07-05T00:01:08.772Z,17.15
2018-07-05T00:03:55.178Z,17.02
2018-07-05T00:06:41.728Z,17.18
2018-07-05T00:09:28.400Z,16.95
2018-07-05T00:12:14.985Z,16.79
2018-07-05T00:15:01.161Z,16.70
2018-07-05T00:17:47.750Z,16.63
2018-07-05T00:20:34.273Z,16.58
2018-07-05T00:23:20.908Z,16.60
2018-07-05T00:26:07.363Z,16.59
2018-07-05T00:28:54.141Z,16.59
2018-07-05T00:31:40.597Z,16.57
2018-07-05T00:34:27.181Z,16.49
2018-07-05T00:37:13.741Z,16.43
2018-07-05T00:40:00.373Z,16.48
2018-07-05T00:42:46.821Z,16.47
2018-07-05T00:45:33.385Z,16.43
2018-07-05T00:48:19.891Z,16.35
2018-07-05T00:51:06.467Z,16.34
2018-07-05T00:53:53.084Z,16.28
2018-07-05T00:56:39.597Z,16.23
2018-07-05T00:59:26.013Z,16.17
2018-07-05T01:02:12.497Z,16.14
2018-07-05T01:04:59.032Z,16.18
2018-07-05T01:07:45.551Z,16.18
2018-07-05T01:10:32.005Z,16.15
2018-07-05T01:13:18.693Z,16.16
2018-07-05T01:16:05.247Z,16.18
2018-07-05T01:18:51.629Z,16.21
2018-07-05T01:21:38.173Z,16.18
2018-07-05T01:24:24.708Z,16.21
2018-07-05T01:27:11.400Z,16.25
2018-07-05T01:29:58.967Z,16.22
2018-07-05T01:32:45.604Z,16.13
2018-07-05T01:35:32.079Z,16.07
2018-07-05T01:38:18.491Z,16.00
2018-07-05T01:41:04.986Z,16.01
2018-07-05T01:43:51.512Z,15.99
2018-07-05T01:46:37.979Z,15.95
2018-07-05T01:49:24.664Z,15.95
2018-07-05T01:52:12.898Z,15.96
2018-07-05T01:54:59.494Z,15.96
2018-07-05T01:57:45.996Z,15.94
2018-07-05T02:00:32.686Z,15.97
2018-07-05T02:03:19.256Z,16.02
2018-07-05T02:06:05.617Z,15.99
2018-07-05T02:08:52.168Z,16.02
2018-07-05T02:11:38.684Z,15.99
2018-07-05T02:14:25.248Z,15.99
2018-07-05T02:17:11.812Z,15.97
2018-07-05T02:19:58.499Z,15.98
2018-07-05T02:22:44.980Z,15.99
2018-07-05T02:25:32.388Z,16.04
2018-07-05T02:28:19.053Z,16.05
2018-07-05T02:31:05.519Z,16.05
2018-07-05T02:33:51.985Z,15.98
2018-07-05T02:36:38.585Z,15.92
2018-07-05T02:39:30.169Z,15.92
2018-07-05T02:42:16.701Z,15.99
2018-07-05T02:45:03.200Z,16.12
2018-07-05T02:47:49.936Z,16.14
2018-07-05T02:50:36.289Z,16.23
2018-07-05T02:53:23.393Z,16.43
2018-07-05T02:56:10.204Z,16.65
2018-07-05T02:58:57.703Z,16.82
2018-07-05T03:01:44.222Z,16.95
2018-07-05T03:04:30.850Z,17.08
2018-07-05T03:07:17.441Z,17.14
2018-07-05T03:10:03.992Z,17.19
2018-07-05T03:12:50.703Z,17.22
2018-07-05T03:15:37.112Z,17.27
2018-07-05T03:18:31.056Z,17.35
2018-07-05T03:21:21.283Z,17.41
2018-07-05T03:24:08.341Z,17.52
2018-07-05T03:26:55.897Z,17.61
2018-07-05T03:29:43.185Z,17.73
2018-07-05T03:32:33.496Z,17.79
2018-07-05T03:35:22.635Z,17.90
2018-07-05T03:38:10.377Z,18.15
2018-07-05T03:41:00.560Z,18.37
2018-07-05T03:43:50.627Z,18.51
2018-07-05T03:46:37.410Z,18.73
2018-07-05T03:49:23.794Z,19.06
2018-07-05T03:52:10.270Z,19.42
2018-07-05T03:54:56.688Z,19.72
2018-07-05T03:57:43.272Z,19.93
2018-07-05T04:00:29.652Z,20.16
2018-07-05T04:03:16.141Z,20.35
2018-07-05T04:06:02.735Z,20.49
2018-07-05T04:08:49.615Z,20.59
2018-07-05T04:11:36.208Z,20.64
2018-07-05T04:14:22.890Z,20.70
2018-07-05T04:17:09.562Z,20.76
2018-07-05T04:19:56.036Z,20.79
2018-07-05T04:22:42.558Z,20.82
2018-07-05T04:25:29.062Z,20.80
2018-07-05T04:28:15.764Z,20.77
2018-07-05T04:31:02.441Z,20.76
2018-07-05T04:33:43.067Z,20.81
2018-07-05T04:36:29.503Z,20.90
2018-07-05T04:39:16.107Z,21.00
2018-07-05T04:42:02.542Z,21.13
2018-07-05T04:44:49.299Z,21.26
2018-07-05T04:47:35.610Z,21.41
2018-07-05T04:50:22.299Z,21.56
2018-07-05T04:53:08.855Z,21.71
2018-07-05T04:55:49.319Z,21.89
2018-07-05T04:58:36.111Z,22.03
2018-07-05T05:01:22.620Z,22.23
2018-07-05T05:04:09.114Z,22.37
2018-07-05T05:06:55.755Z,22.46
2018-07-05T05:09:42.201Z,22.56
2018-07-05T05:12:28.936Z,22.69
2018-07-05T05:15:15.555Z,22.88
2018-07-05T05:18:02.124Z,23.07
2018-07-05T05:20:49.261Z,23.07
2018-07-05T05:23:35.858Z,23.04
2018-07-05T05:26:22.291Z,23.31
2018-07-05T05:29:08.731Z,23.73
2018-07-05T05:31:55.685Z,23.92
2018-07-05T05:34:44.040Z,24.16
2018-07-05T05:37:30.951Z,24.54
2018-07-05T05:40:17.352Z,24.28
2018-07-05T05:43:10.174Z,24.40
2018-07-05T05:45:56.664Z,24.50
2018-07-05T05:48:43.243Z,24.20
2018-07-05T05:51:29.687Z,23.89
2018-07-05T05:54:16.154Z,23.98
2018-07-05T05:57:03.754Z,24.24
2018-07-05T05:59:50.273Z,24.39
2018-07-05T06:02:36.795Z,24.57
2018-07-05T06:05:23.329Z,24.62
2018-07-05T06:08:09.870Z,24.69
2018-07-05T06:10:56.546Z,24.61
2018-07-05T06:13:36.890Z,25.06
2018-07-05T06:16:23.462Z,25.65
2018-07-05T06:19:10.131Z,26.06
2018-07-05T06:21:56.589Z,25.94
2018-07-05T06:24:43.297Z,25.92
2018-07-05T06:27:30.319Z,25.81
2018-07-05T06:30:17.115Z,25.81
2018-07-05T06:33:03.768Z,26.01
2018-07-05T06:35:50.283Z,26.04
2018-07-05T06:38:36.664Z,26.29
2018-07-05T06:41:23.489Z,26.52
2018-07-05T06:44:11.447Z,26.45
2018-07-05T06:46:58.340Z,26.44
2018-07-05T06:49:45.243Z,26.52
2018-07-05T06:52:32.860Z,26.79
2018-07-05T06:55:19.561Z,26.93
2018-07-05T06:58:06.046Z,27.09
2018-07-05T07:00:52.646Z,26.83
2018-07-05T07:03:39.315Z,26.61
2018-07-05T07:06:25.797Z,26.77
2018-07-05T07:09:12.336Z,27.12
2018-07-05T07:11:59.016Z,27.16
2018-07-05T07:14:45.681Z,26.66
2018-07-05T07:17:32.154Z,27.62
2018-07-05T07:20:19.663Z,28.07
2018-07-05T07:23:06.022Z,28.37
2018-07-05T07:25:52.666Z,28.49
2018-07-05T07:28:39.258Z,28.47
2018-07-05T07:31:25.791Z,28.66
2018-07-05T07:34:12.382Z,28.83
2018-07-05T07:36:59.217Z,28.95
2018-07-05T07:39:45.997Z,29.23
2018-07-05T07:42:14.198Z,29.23
2018-07-05T07:44:42.084Z,29.13
2018-07-05T07:47:10.140Z,28.68
2018-07-05T07:49:38.314Z,28.64
2018-07-05T07:52:06.772Z,28.65
2018-07-05T07:54:34.844Z,28.50
2018-07-05T07:57:02.816Z,28.21
2018-07-05T07:59:30.809Z,28.33
2018-07-05T08:01:59.419Z,28.48
2018-07-05T08:04:27.369Z,28.47
2018-07-05T08:06:55.544Z,28.81
2018-07-05T08:09:23.538Z,28.80
2018-07-05T08:11:51.516Z,28.84
2018-07-05T08:14:19.412Z,28.00
2018-07-05T08:16:47.448Z,28.69
2018-07-05T08:19:15.858Z,28.55
2018-07-05T08:21:43.814Z,28.32
2018-07-05T08:24:11.754Z,28.44
2018-07-05T08:26:39.788Z,28.87
2018-07-05T08:29:07.654Z,28.88
2018-07-05T08:31:35.574Z,28.81
2018-07-05T08:34:03.453Z,28.82
2018-07-05T08:36:31.346Z,28.96
2018-07-05T08:38:59.249Z,29.11
2018-07-05T08:41:27.177Z,29.01
2018-07-05T08:43:55.804Z,29.25
2018-07-05T08:46:23.705Z,29.74
2018-07-05T08:48:53.461Z,30.13
2018-07-05T08:51:22.450Z,30.63
2018-07-05T08:53:50.401Z,31.46
2018-07-05T08:56:18.301Z,32.04
2018-07-05T08:58:48.013Z,32.02
2018-07-05T09:01:18.720Z,32.08
2018-07-05T09:03:47.482Z,32.32
2018-07-05T09:06:16.275Z,32.48
2018-07-05T09:08:45.232Z,32.38
2018-07-05T09:11:14.954Z,31.89
2018-07-05T09:13:42.873Z,31.95
2018-07-05T09:16:11.741Z,32.19
2018-07-05T09:18:39.745Z,32.34
2018-07-05T09:21:09.331Z,32.56
2018-07-05T09:23:38.025Z,32.40
2018-07-05T09:26:07.004Z,31.05
2018-07-05T09:28:34.897Z,31.36
2018-07-05T09:31:03.351Z,31.59
2018-07-05T09:33:32.905Z,31.89
2018-07-05T09:36:01.144Z,32.11
2018-07-05T09:38:29.894Z,31.89
2018-07-05T09:40:57.871Z,31.83
2018-07-05T09:43:25.813Z,31.37
2018-07-05T09:45:53.715Z,31.25
2018-07-05T09:48:22.215Z,31.23
2018-07-05T09:50:50.706Z,31.68
2018-07-05T09:53:20.893Z,31.77
2018-07-05T09:55:51.385Z,31.30
2018-07-05T09:58:19.349Z,31.59
2018-07-05T10:00:49.741Z,32.03
2018-07-05T10:03:19.285Z,31.97
2018-07-05T10:05:47.671Z,31.56
2018-07-05T10:08:17.741Z,31.46
2018-07-05T10:10:46.563Z,31.64
2018-07-05T10:13:14.684Z,31.44
2018-07-05T10:15:42.462Z,31.30
2018-07-05T10:18:11.689Z,31.08
2018-07-05T10:20:41.195Z,30.21
2018-07-05T10:23:09.604Z,30.09
2018-07-05T10:25:37.649Z,30.24
2018-07-05T10:28:05.657Z,30.55
2018-07-05T10:30:52.220Z,30.39
2018-07-05T10:33:38.559Z,30.43
2018-07-05T10:36:07.227Z,30.42
2018-07-05T10:38:36.620Z,30.44
2018-07-05T10:41:23.127Z,30.71
2018-07-05T10:44:10.287Z,31.06
2018-07-05T10:46:56.730Z,31.21
2018-07-05T10:49:43.380Z,31.20
2018-07-05T10:52:29.901Z,30.88
2018-07-05T10:55:16.400Z,31.07
2018-07-05T10:58:03.036Z,31.64
2018-07-05T11:00:49.468Z,31.99
2018-07-05T11:03:35.955Z,31.84
2018-07-05T11:06:23.241Z,31.78
2018-07-05T11:09:09.452Z,31.82
2018-07-05T11:11:57.144Z,31.19
2018-07-05T11:14:43.878Z,31.06
2018-07-05T11:17:30.477Z,31.10
2018-07-05T11:20:17.200Z,31.18
2018-07-05T11:23:03.715Z,31.06
2018-07-05T11:25:50.332Z,31.13
2018-07-05T11:28:36.853Z,30.45
2018-07-05T11:31:23.335Z,29.89
2018-07-05T11:34:09.737Z,29.30
2018-07-05T11:36:56.274Z,29.79
2018-07-05T11:39:37.179Z,30.32
2018-07-05T11:42:23.859Z,30.87
2018-07-05T11:45:10.443Z,30.52
2018-07-05T11:47:57.018Z,30.95
2018-07-05T11:50:43.466Z,31.43
2018-07-05T11:53:29.812Z,30.91
2018-07-05T11:56:16.441Z,31.20
2018-07-05T11:59:03.010Z,31.28
2018-07-05T12:01:49.410Z,31.62
2018-07-05T12:04:35.860Z,31.90
2018-07-05T12:07:22.464Z,32.06
2018-07-05T12:10:09.098Z,32.15
2018-07-05T12:12:56.424Z,31.68
2018-07-05T12:15:42.824Z,31.52
2018-07-05T12:18:29.550Z,31.17
2018-07-05T12:21:15.996Z,31.37
2018-07-05T12:24:02.607Z,30.79
2018-07-05T12:26:49.251Z,30.67
2018-07-05T12:29:35.867Z,30.59
2018-07-05T12:32:22.208Z,30.33
2018-07-05T12:35:08.636Z,30.57
2018-07-05T12:37:55.098Z,30.91
2018-07-05T12:40:41.400Z,31.38
2018-07-05T12:43:27.800Z,31.45
2018-07-05T12:46:14.364Z,31.75
2018-07-05T12:49:00.781Z,31.72
2018-07-05T12:51:47.334Z,31.47
2018-07-05T12:54:33.844Z,31.65
2018-07-05T12:57:20.341Z,31.87
2018-07-05T13:00:06.739Z,31.96
2018-07-05T13:02:53.459Z,32.21
2018-07-05T13:05:39.967Z,32.05
2018-07-05T13:08:26.817Z,31.90
2018-07-05T13:11:13.549Z,32.06
2018-07-05T13:13:59.975Z,32.14
2018-07-05T13:16:46.668Z,32.13
2018-07-05T13:19:33.340Z,32.02
2018-07-05T13:22:19.820Z,32.01
2018-07-05T13:25:06.101Z,32.27
2018-07-05T13:27:52.495Z,32.39
2018-07-05T13:30:39.025Z,32.36
2018-07-05T13:33:25.514Z,32.42
2018-07-05T13:36:11.987Z,32.39
2018-07-05T13:38:58.607Z,32.53
2018-07-05T13:41:45.188Z,32.21
2018-07-05T13:44:31.771Z,32.03
2018-07-05T13:47:18.008Z,32.18
2018-07-05T13:50:04.363Z,32.43
2018-07-05T13:52:50.773Z,32.87
2018-07-05T13:55:37.302Z,33.08
2018-07-05T13:58:23.782Z,33.11
2018-07-05T14:01:10.394Z,32.97
2018-07-05T14:03:56.839Z,33.03
2018-07-05T14:06:43.428Z,32.86
2018-07-05T14:09:29.903Z,33.39
2018-07-05T14:12:16.503Z,33.84
2018-07-05T14:15:02.820Z,33.97
2018-07-05T14:17:49.536Z,34.27
2018-07-05T14:20:36.045Z,33.90
2018-07-05T14:23:22.611Z,33.61
2018-07-05T14:26:09.082Z,33.48
2018-07-05T14:28:55.763Z,33.61
2018-07-05T14:31:42.233Z,34.12
2018-07-05T14:34:28.739Z,34.16
2018-07-05T14:37:15.122Z,33.12
2018-07-05T14:40:01.832Z,33.35
2018-07-05T14:42:48.334Z,32.96
2018-07-05T14:45:34.998Z,33.51
2018-07-05T14:48:21.505Z,33.52
2018-07-05T14:51:07.947Z,33.49
2018-07-05T14:53:54.607Z,32.76
2018-07-05T14:56:41.019Z,33.16
2018-07-05T14:59:27.604Z,33.66
2018-07-05T15:02:14.083Z,33.52
2018-07-05T15:05:00.744Z,33.26
2018-07-05T15:07:47.312Z,32.96
2018-07-05T15:10:33.782Z,32.71
2018-07-05T15:13:20.304Z,32.57
2018-07-05T15:16:06.889Z,32.65
2018-07-05T15:18:53.611Z,32.66
2018-07-05T15:21:40.023Z,32.55
2018-07-05T15:24:26.638Z,32.69
2018-07-05T15:27:13.095Z,32.97
2018-07-05T15:29:59.655Z,33.45
2018-07-05T15:32:46.097Z,33.77
2018-07-05T15:35:32.675Z,32.53
2018-07-05T15:38:19.164Z,31.45
2018-07-05T15:41:05.815Z,30.76
2018-07-05T15:43:52.340Z,30.36
2018-07-05T15:46:38.949Z,30.57
2018-07-05T15:49:25.383Z,30.95
2018-07-05T15:52:12.067Z,31.05
2018-07-05T15:54:58.569Z,31.55
2018-07-05T15:57:46.111Z,31.95
2018-07-05T16:00:32.789Z,32.08
2018-07-05T16:03:19.343Z,32.31
2018-07-05T16:06:05.941Z,32.53
2018-07-05T16:08:52.221Z,32.91
2018-07-05T16:11:38.866Z,33.52
2018-07-05T16:14:25.198Z,33.69
2018-07-05T16:17:11.697Z,33.83
2018-07-05T16:19:58.254Z,34.18
2018-07-05T16:22:44.528Z,34.18
2018-07-05T16:25:31.207Z,33.61
2018-07-05T16:28:17.482Z,33.24
2018-07-05T16:31:04.106Z,33.03
2018-07-05T16:33:50.667Z,32.67
2018-07-05T16:36:37.329Z,32.51
2018-07-05T16:39:23.632Z,32.61
2018-07-05T16:42:10.299Z,32.61
2018-07-05T16:44:56.949Z,32.59
2018-07-05T16:47:43.437Z,32.58
2018-07-05T16:50:31.566Z,32.52
2018-07-05T16:53:19.313Z,32.41
2018-07-05T16:56:11.223Z,32.51
2018-07-05T16:58:57.604Z,32.41
2018-07-05T17:01:45.628Z,32.60
2018-07-05T17:04:33.350Z,32.76
2018-07-05T17:07:31.524Z,32.65
2018-07-05T17:10:21.784Z,32.15
2018-07-05T17:13:09.383Z,31.94
2018-07-05T17:15:55.799Z,31.69
2018-07-05T17:18:42.271Z,31.16
2018-07-05T17:21:29.315Z,31.11
2018-07-05T17:24:17.080Z,30.89
2018-07-05T17:27:03.666Z,30.73
2018-07-05T17:29:51.606Z,30.86
2018-07-05T17:32:38.851Z,30.66
2018-07-05T17:35:25.583Z,30.71
2018-07-05T17:38:12.581Z,30.57
2018-07-05T17:40:59.421Z,30.36
2018-07-05T17:43:47.022Z,30.22
2018-07-05T17:46:33.586Z,29.89
2018-07-05T17:49:24.476Z,29.75
2018-07-05T17:52:11.371Z,29.56
2018-07-05T17:54:57.909Z,29.52
2018-07-05T17:57:46.160Z,29.47
2018-07-05T18:00:33.769Z,29.23
2018-07-05T18:03:21.073Z,29.06
2018-07-05T18:06:08.567Z,28.68
2018-07-05T18:09:06.475Z,28.48
2018-07-05T18:11:54.138Z,28.33
2018-07-05T18:14:41.682Z,28.23
2018-07-05T18:17:34.850Z,28.08
2018-07-05T18:20:23.368Z,27.85
2018-07-05T18:23:10.907Z,27.71
2018-07-05T18:26:09.302Z,27.56
2018-07-05T18:28:56.223Z,27.38
2018-07-05T18:31:46.580Z,27.27
2018-07-05T18:34:34.284Z,27.21
2018-07-05T18:37:21.089Z,27.15
2018-07-05T18:40:11.101Z,27.04
2018-07-05T18:42:57.880Z,26.97
2018-07-05T18:45:51.797Z,26.85
2018-07-05T18:48:40.004Z,26.69
2018-07-05T18:51:27.721Z,26.56
2018-07-05T18:54:14.985Z,26.43
2018-07-05T18:57:02.258Z,26.28
2018-07-05T18:59:50.075Z,26.12
2018-07-05T19:02:37.739Z,25.97
2018-07-05T19:05:18.548Z,25.52
2018-07-05T19:08:05.392Z,25.66
2018-07-05T19:10:53.160Z,25.47
2018-07-05T19:13:40.620Z,25.32
2018-07-05T19:16:27.228Z,25.16
2018-07-05T19:19:14.711Z,25.04
2018-07-05T19:22:01.528Z,24.90
2018-07-05T19:24:48.606Z,24.72
2018-07-05T19:27:36.788Z,24.57
2018-07-05T19:30:24.641Z,24.46
2018-07-05T19:33:11.128Z,24.43
2018-07-05T19:35:58.182Z,24.32
2018-07-05T19:38:50.582Z,24.23
2018-07-05T19:41:37.326Z,24.20
2018-07-05T19:44:24.426Z,24.19
2018-07-05T19:47:11.301Z,24.14
2018-07-05T19:49:58.140Z,24.14
2018-07-05T19:52:44.833Z,24.10
2018-07-05T19:55:31.753Z,24.00
2018-07-05T19:58:20.904Z,23.88
2018-07-05T20:01:07.354Z,23.82
2018-07-05T20:03:54.361Z,23.76
2018-07-05T20:06:40.806Z,23.78
2018-07-05T20:09:27.539Z,23.79
2018-07-05T20:12:14.241Z,23.79
2018-07-05T20:15:00.808Z,23.80
2018-07-05T20:17:48.239Z,23.75
2018-07-05T20:20:34.606Z,23.77
2018-07-05T20:23:22.020Z,23.73
2018-07-05T20:26:08.551Z,23.66
2018-07-05T20:28:55.277Z,23.55
2018-07-05T20:31:41.594Z,23.41
2018-07-05T20:34:28.351Z,23.39
2018-07-05T20:37:14.746Z,23.40
2018-07-05T20:40:01.262Z,23.40
2018-07-05T20:42:47.737Z,23.53
2018-07-05T20:45:34.463Z,23.56
2018-07-05T20:48:20.936Z,23.67
2018-07-05T20:51:07.349Z,23.72
2018-07-05T20:53:53.783Z,23.62
2018-07-05T20:56:40.523Z,23.66
2018-07-05T20:59:26.845Z,23.68
2018-07-05T21:02:13.790Z,23.65
2018-07-05T21:05:00.366Z,23.66
2018-07-05T21:07:46.949Z,23.63
2018-07-05T21:10:33.424Z,23.59
2018-07-05T21:13:20.052Z,23.53
2018-07-05T21:16:06.742Z,23.60
2018-07-05T21:18:53.493Z,23.57
2018-07-05T21:21:39.839Z,23.51
2018-07-05T21:24:26.249Z,23.44
2018-07-05T21:27:12.799Z,23.31
2018-07-05T21:29:59.242Z,23.18
2018-07-05T21:32:45.745Z,23.05
2018-07-05T21:35:32.353Z,23.01
2018-07-05T21:38:18.813Z,22.99
2018-07-05T21:40:59.365Z,22.97
2018-07-05T21:43:39.685Z,23.11
2018-07-05T21:46:25.981Z,23.27
2018-07-05T21:49:12.393Z,23.41
2018-07-05T21:51:58.826Z,23.47
2018-07-05T21:54:45.474Z,23.45
2018-07-05T21:57:31.894Z,23.43
2018-07-05T22:00:18.681Z,23.43
2018-07-05T22:03:05.227Z,23.40
2018-07-05T22:05:51.806Z,23.34
2018-07-05T22:08:38.317Z,23.29
2018-07-05T22:11:24.928Z,23.25
2018-07-05T22:14:11.682Z,23.25
2018-07-05T22:17:03.307Z,23.34
2018-07-05T22:19:49.063Z,23.33
2018-07-05T22:22:40.877Z,23.27
2018-07-05T22:25:32.489Z,23.28
2018-07-05T22:28:24.013Z,23.34
2018-07-05T22:31:15.637Z,23.59
2018-07-05T22:34:02.377Z,23.62
2018-07-05T22:36:48.781Z,23.73
2018-07-05T22:39:35.229Z,23.89
2018-07-05T22:42:21.868Z,23.89
2018-07-05T22:45:08.348Z,23.82
2018-07-05T22:47:54.973Z,23.78
2018-07-05T22:50:41.452Z,23.71
2018-07-05T22:53:28.221Z,23.63
2018-07-05T22:56:08.920Z,23.55
2018-07-05T22:58:55.189Z,23.44
2018-07-05T23:01:41.620Z,23.32
2018-07-05T23:04:28.109Z,23.19
2018-07-05T23:07:14.473Z,23.22
2018-07-05T23:10:00.949Z,23.04
2018-07-05T23:12:47.364Z,22.85
2018-07-05T23:15:33.900Z,22.72
2018-07-05T23:18:21.061Z,22.64
2018-07-05T23:21:07.509Z,22.50
2018-07-05T23:23:53.957Z,22.42
2018-07-05T23:26:40.777Z,22.29
2018-07-05T23:29:27.169Z,22.18
2018-07-05T23:32:13.929Z,22.11
2018-07-05T23:35:00.308Z,22.04
2018-07-05T23:37:46.807Z,21.93
2018-07-05T23:40:33.433Z,21.75
2018-07-05T23:43:13.912Z,21.73
2018-07-05T23:46:00.585Z,21.62
2018-07-05T23:48:47.020Z,21.53
2018-07-05T23:51:33.552Z,21.39
2018-07-05T23:54:20.172Z,21.55
2018-07-05T23:57:06.740Z,21.46
2018-07-05T23:59:53.396Z,21.43
